PWSweather.com
Personal Weather Stations
Station Observations
KCAEXETE14
Park Place, Exeter, CA 93221

Park PlaceExeter, CA 93221

Lat: 36.283487, Lon: -119.152218

Elevation: 380

Station Type: Davis Vantage Vue

http://weather.manyjourneys.com/

High Low Average
Temperature 102.2°F39.0°C 65.1°F18.4°C 85.2°F29.6°C
Dew Point 66.5°F19.2°C 53.6°F12.0°C 60.2°F15.7°C
Winds 2.3 mph 3.7 kmh Calm Calm Calm SWCalm SW
Wind Gusts 4.6 mph7.4 kmh -- 1.0 mph1.6 kmh
Humidity 82% 21% 48%
Pressure 29.75 in1007.5 mb 29.61 in1002.7 mb -
Precipitation 0.00 in0.0 mm - -
Hour Temp Dew Point Humidity Winds Wind Gusts Pressure Precip Precip Rate Daily Precip Total
12:00 AM 74.1°F23.4°C 63.3°F17.4°C 69% Calm Calm -- 29.72 in1006.4 mb - 0.00 in0.0 mm 0.00 in0.0 mm
12:05 AM 73.5°F23.1°C 63.1°F17.3°C 70% Calm Calm -- 29.72 in1006.4 mb - 0.00 in0.0 mm 0.00 in0.0 mm
12:10 AM 73.0°F22.8°C 63.0°F17.2°C 71% Calm Calm -- 29.72 in1006.4 mb - 0.00 in0.0 mm 0.00 in0.0 mm
12:15 AM 72.9°F22.7°C 63.0°F17.2°C 71% Calm Calm -- 29.72 in1006.4 mb - 0.00 in0.0 mm 0.00 in0.0 mm
12:20 AM 72.8°F22.7°C 63.2°F17.3°C 72% Calm Calm -- 29.72 in1006.4 mb - 0.00 in0.0 mm 0.00 in0.0 mm
12:25 AM 72.4°F22.4°C 63.6°F17.6°C 74% Calm Calm -- 29.72 in1006.4 mb - 0.00 in0.0 mm 0.00 in0.0 mm
12:30 AM 71.8°F22.1°C 63.1°F17.3°C 74% Calm Calm -- 29.72 in1006.4 mb - 0.00 in0.0 mm 0.00 in0.0 mm
12:35 AM 71.5°F21.9°C 63.2°F17.3°C 75% Calm Calm -- 29.72 in1006.4 mb - 0.00 in0.0 mm 0.00 in0.0 mm
12:40 AM 71.3°F21.8°C 63.3°F17.4°C 76% Calm Calm -- 29.72 in1006.4 mb - 0.00 in0.0 mm 0.00 in0.0 mm
12:45 AM 71.3°F21.8°C 64.1°F17.8°C 78% Calm Calm -- 29.72 in1006.4 mb - 0.00 in0.0 mm 0.00 in0.0 mm
12:50 AM 71.4°F21.9°C 63.8°F17.7°C 77% Calm Calm -- 29.72 in1006.4 mb - 0.00 in0.0 mm 0.00 in0.0 mm
12:55 AM 71.6°F22.0°C 64.0°F17.8°C 77% Calm Calm -- 29.72 in1006.4 mb - 0.00 in0.0 mm 0.00 in0.0 mm
01:00 AM 71.7°F22.1°C 63.4°F17.4°C 75% Calm Calm -- 29.72 in1006.4 mb - 0.00 in0.0 mm 0.00 in0.0 mm
01:05 AM 71.6°F22.0°C 63.3°F17.4°C 75% Calm Calm -- 29.72 in1006.4 mb - 0.00 in0.0 mm 0.00 in0.0 mm
01:10 AM 71.6°F22.0°C 63.3°F17.4°C 75% Calm Calm -- 29.71 in1006.1 mb - 0.00 in0.0 mm 0.00 in0.0 mm
01:15 AM 71.6°F22.0°C 63.6°F17.6°C 76% Calm Calm -- 29.71 in1006.1 mb - 0.00 in0.0 mm 0.00 in0.0 mm
01:20 AM 71.4°F21.9°C 63.1°F17.3°C 75% Calm Calm -- 29.71 in1006.1 mb - 0.00 in0.0 mm 0.00 in0.0 mm
01:25 AM 71.4°F21.9°C 63.8°F17.7°C 77% Calm Calm -- 29.71 in1006.1 mb - 0.00 in0.0 mm 0.00 in0.0 mm
01:30 AM 71.3°F21.8°C 63.7°F17.6°C 77% Calm Calm -- 29.71 in1006.1 mb - 0.00 in0.0 mm 0.00 in0.0 mm
01:35 AM 71.1°F21.7°C 63.1°F17.3°C 76% Calm Calm -- 29.71 in1006.1 mb - 0.00 in0.0 mm 0.00 in0.0 mm
01:40 AM 71.0°F21.7°C 63.4°F17.4°C 77% Calm Calm -- 29.71 in1006.1 mb - 0.00 in0.0 mm 0.00 in0.0 mm
01:45 AM 70.9°F21.6°C 63.7°F17.6°C 78% Calm Calm -- 29.71 in1006.1 mb - 0.00 in0.0 mm 0.00 in0.0 mm
01:50 AM 70.7°F21.5°C 63.1°F17.3°C 77% Calm Calm -- 29.71 in1006.1 mb - 0.00 in0.0 mm 0.00 in0.0 mm
01:55 AM 70.5°F21.4°C 62.9°F17.2°C 77% Calm Calm -- 29.71 in1006.1 mb - 0.00 in0.0 mm 0.00 in0.0 mm
02:00 AM 70.2°F21.2°C 62.7°F17.1°C 77% Calm Calm -- 29.71 in1006.1 mb - 0.00 in0.0 mm 0.00 in0.0 mm
02:05 AM 70.0°F21.1°C 62.9°F17.2°C 78% Calm Calm -- 29.71 in1006.1 mb - 0.00 in0.0 mm 0.00 in0.0 mm
02:10 AM 69.8°F21.0°C 62.6°F17.0°C 78% Calm Calm -- 29.71 in1006.1 mb - 0.00 in0.0 mm 0.00 in0.0 mm
02:15 AM 69.5°F20.8°C 62.4°F16.9°C 78% Calm Calm -- 29.71 in1006.1 mb - 0.00 in0.0 mm 0.00 in0.0 mm
02:20 AM 69.2°F20.7°C 62.0°F16.7°C 78% Calm Calm -- 29.71 in1006.1 mb - 0.00 in0.0 mm 0.00 in0.0 mm
02:25 AM 68.6°F20.3°C 62.5°F16.9°C 81% Calm Calm -- 29.71 in1006.1 mb - 0.00 in0.0 mm 0.00 in0.0 mm
02:30 AM 68.2°F20.1°C 62.5°F16.9°C 82% Calm Calm -- 29.71 in1006.1 mb - 0.00 in0.0 mm 0.00 in0.0 mm
02:35 AM 67.9°F19.9°C 61.9°F16.6°C 81% Calm Calm -- 29.71 in1006.1 mb - 0.00 in0.0 mm 0.00 in0.0 mm
02:40 AM 67.7°F19.8°C 61.7°F16.5°C 81% Calm Calm -- 29.72 in1006.4 mb - 0.00 in0.0 mm 0.00 in0.0 mm
02:45 AM 67.7°F19.8°C 61.6°F16.4°C 81% Calm Calm -- 29.71 in1006.1 mb - 0.00 in0.0 mm 0.00 in0.0 mm
02:50 AM 67.7°F19.8°C 61.7°F16.5°C 81% Calm Calm -- 29.71 in1006.1 mb - 0.00 in0.0 mm 0.00 in0.0 mm
02:55 AM 67.6°F19.8°C 61.2°F16.2°C 80% Calm Calm -- 29.71 in1006.1 mb - 0.00 in0.0 mm 0.00 in0.0 mm
03:00 AM 67.6°F19.8°C 61.2°F16.2°C 80% Calm Calm -- 29.71 in1006.1 mb - 0.00 in0.0 mm 0.00 in0.0 mm
03:05 AM 67.7°F19.8°C 61.0°F16.1°C 79% Calm Calm -- 29.71 in1006.1 mb - 0.00 in0.0 mm 0.00 in0.0 mm
03:10 AM 67.8°F19.9°C 61.0°F16.1°C 79% Calm Calm -- 29.71 in1006.1 mb - 0.00 in0.0 mm 0.00 in0.0 mm
03:15 AM 68.1°F20.1°C 61.0°F16.1°C 78% Calm Calm -- 29.71 in1006.1 mb - 0.00 in0.0 mm 0.00 in0.0 mm
03:20 AM 68.1°F20.1°C 60.2°F15.7°C 76% Calm Calm -- 29.71 in1006.1 mb - 0.00 in0.0 mm 0.00 in0.0 mm
03:25 AM 68.1°F20.1°C 59.9°F15.5°C 75% Calm Calm -- 29.71 in1006.1 mb - 0.00 in0.0 mm 0.00 in0.0 mm
03:30 AM 68.3°F20.2°C 59.7°F15.4°C 74% Calm Calm 1.2 mph1.9 kmh 29.71 in1006.1 mb - 0.00 in0.0 mm 0.00 in0.0 mm
03:35 AM 68.6°F20.3°C 59.6°F15.3°C 73% Calm Calm 1.2 mph1.9 kmh 29.71 in1006.1 mb - 0.00 in0.0 mm 0.00 in0.0 mm
03:40 AM 68.8°F20.4°C 59.8°F15.4°C 73% Calm Calm 1.2 mph1.9 kmh 29.71 in1006.1 mb - 0.00 in0.0 mm 0.00 in0.0 mm
03:45 AM 68.8°F20.4°C 59.8°F15.4°C 73% Calm Calm -- 29.71 in1006.1 mb - 0.00 in0.0 mm 0.00 in0.0 mm
03:50 AM 68.9°F20.5°C 59.5°F15.3°C 72% Calm Calm 1.2 mph1.9 kmh 29.71 in1006.1 mb - 0.00 in0.0 mm 0.00 in0.0 mm
03:55 AM 68.9°F20.5°C 59.1°F15.1°C 71% Calm Calm -- 29.71 in1006.1 mb - 0.00 in0.0 mm 0.00 in0.0 mm
04:00 AM 68.9°F20.5°C 59.1°F15.1°C 71% Calm Calm -- 29.71 in1006.1 mb - 0.00 in0.0 mm 0.00 in0.0 mm
04:05 AM 68.8°F20.4°C 59.0°F15.0°C 71% Calm Calm 1.2 mph1.9 kmh 29.71 in1006.1 mb - 0.00 in0.0 mm 0.00 in0.0 mm
04:10 AM 68.8°F20.4°C 59.0°F15.0°C 71% Calm Calm -- 29.71 in1006.1 mb - 0.00 in0.0 mm 0.00 in0.0 mm
04:15 AM 68.6°F20.3°C 58.4°F14.7°C 70% Calm Calm -- 29.71 in1006.1 mb - 0.00 in0.0 mm 0.00 in0.0 mm
04:20 AM 68.6°F20.3°C 58.8°F14.9°C 71% Calm Calm 1.2 mph1.9 kmh 29.71 in1006.1 mb - 0.00 in0.0 mm 0.00 in0.0 mm
04:25 AM 68.4°F20.2°C 58.2°F14.6°C 70% Calm Calm -- 29.71 in1006.1 mb - 0.00 in0.0 mm 0.00 in0.0 mm
04:30 AM 68.2°F20.1°C 58.4°F14.7°C 71% Calm Calm 1.2 mph1.9 kmh 29.71 in1006.1 mb - 0.00 in0.0 mm 0.00 in0.0 mm
04:35 AM 68.2°F20.1°C 58.0°F14.4°C 70% Calm Calm -- 29.71 in1006.1 mb - 0.00 in0.0 mm 0.00 in0.0 mm
04:40 AM 68.4°F20.2°C 57.8°F14.3°C 69% Calm Calm -- 29.71 in1006.1 mb - 0.00 in0.0 mm 0.00 in0.0 mm
04:45 AM 68.7°F20.4°C 57.7°F14.3°C 68% Calm Calm -- 29.71 in1006.1 mb - 0.00 in0.0 mm 0.00 in0.0 mm
04:50 AM 68.8°F20.4°C 57.4°F14.1°C 67% Calm Calm 1.2 mph1.9 kmh 29.71 in1006.1 mb - 0.00 in0.0 mm 0.00 in0.0 mm
04:55 AM 69.0°F20.6°C 57.6°F14.2°C 67% Calm Calm -- 29.71 in1006.1 mb - 0.00 in0.0 mm 0.00 in0.0 mm
05:00 AM 68.6°F20.3°C 58.8°F14.9°C 71% Calm Calm -- 29.71 in1006.1 mb - 0.00 in0.0 mm 0.00 in0.0 mm
05:05 AM 67.7°F19.8°C 58.8°F14.9°C 73% Calm Calm -- 29.71 in1006.1 mb - 0.00 in0.0 mm 0.00 in0.0 mm
05:10 AM 67.1°F19.5°C 58.5°F14.7°C 74% Calm Calm -- 29.71 in1006.1 mb - 0.00 in0.0 mm 0.00 in0.0 mm
05:15 AM 66.6°F19.2°C 58.8°F14.9°C 76% Calm Calm -- 29.71 in1006.1 mb - 0.00 in0.0 mm 0.00 in0.0 mm
05:20 AM 66.2°F19.0°C 58.8°F14.9°C 77% Calm Calm -- 29.71 in1006.1 mb - 0.00 in0.0 mm 0.00 in0.0 mm
05:25 AM 65.9°F18.8°C 59.2°F15.1°C 79% Calm Calm -- 29.71 in1006.1 mb - 0.00 in0.0 mm 0.00 in0.0 mm
05:30 AM 65.6°F18.7°C 59.6°F15.3°C 81% Calm Calm -- 29.71 in1006.1 mb - 0.00 in0.0 mm 0.00 in0.0 mm
05:35 AM 65.3°F18.5°C 59.0°F15.0°C 80% Calm Calm -- 29.71 in1006.1 mb - 0.00 in0.0 mm 0.00 in0.0 mm
05:40 AM 65.1°F18.4°C 58.4°F14.7°C 79% Calm Calm -- 29.72 in1006.4 mb - 0.00 in0.0 mm 0.00 in0.0 mm
05:45 AM 65.2°F18.4°C 58.9°F14.9°C 80% Calm Calm -- 29.72 in1006.4 mb - 0.00 in0.0 mm 0.00 in0.0 mm
05:50 AM 65.2°F18.4°C 58.6°F14.8°C 79% Calm Calm -- 29.72 in1006.4 mb - 0.00 in0.0 mm 0.00 in0.0 mm
05:55 AM 65.3°F18.5°C 58.6°F14.8°C 79% Calm Calm -- 29.72 in1006.4 mb - 0.00 in0.0 mm 0.00 in0.0 mm
06:00 AM 65.4°F18.6°C 59.4°F15.2°C 81% Calm Calm -- 29.72 in1006.4 mb - 0.00 in0.0 mm 0.00 in0.0 mm
06:05 AM 65.2°F18.4°C 58.9°F14.9°C 80% Calm Calm -- 29.72 in1006.4 mb - 0.00 in0.0 mm 0.00 in0.0 mm
06:10 AM 65.4°F18.6°C 58.7°F14.8°C 79% Calm Calm -- 29.72 in1006.4 mb - 0.00 in0.0 mm 0.00 in0.0 mm
06:15 AM 65.6°F18.7°C 59.3°F15.2°C 80% Calm Calm -- 29.72 in1006.4 mb - 0.00 in0.0 mm 0.00 in0.0 mm
06:20 AM 65.6°F18.7°C 58.9°F14.9°C 79% Calm Calm -- 29.73 in1006.8 mb - 0.00 in0.0 mm 0.00 in0.0 mm
06:25 AM 65.8°F18.8°C 58.0°F14.4°C 76% Calm Calm -- 29.73 in1006.8 mb - 0.00 in0.0 mm 0.00 in0.0 mm
06:30 AM 66.7°F19.3°C 57.8°F14.3°C 73% Calm Calm -- 29.73 in1006.8 mb - 0.00 in0.0 mm 0.00 in0.0 mm
06:35 AM 67.6°F19.8°C 58.3°F14.6°C 72% Calm Calm -- 29.73 in1006.8 mb - 0.00 in0.0 mm 0.00 in0.0 mm
06:40 AM 68.5°F20.3°C 58.4°F14.7°C 70% Calm Calm 1.2 mph1.9 kmh 29.73 in1006.8 mb - 0.00 in0.0 mm 0.00 in0.0 mm
06:45 AM 69.8°F21.0°C 58.8°F14.9°C 68% Calm Calm -- 29.73 in1006.8 mb - 0.00 in0.0 mm 0.00 in0.0 mm
06:50 AM 71.1°F21.7°C 58.8°F14.9°C 65% Calm Calm -- 29.73 in1006.8 mb - 0.00 in0.0 mm 0.00 in0.0 mm
06:55 AM 72.2°F22.3°C 58.4°F14.7°C 62% Calm Calm -- 29.73 in1006.8 mb - 0.00 in0.0 mm 0.00 in0.0 mm
07:00 AM 73.2°F22.9°C 58.5°F14.7°C 60% Calm Calm -- 29.73 in1006.8 mb - 0.00 in0.0 mm 0.00 in0.0 mm
07:05 AM 74.4°F23.6°C 59.6°F15.3°C 60% Calm Calm -- 29.73 in1006.8 mb - 0.00 in0.0 mm 0.00 in0.0 mm
07:10 AM 74.9°F23.8°C 59.6°F15.3°C 59% Calm Calm -- 29.74 in1007.1 mb - 0.00 in0.0 mm 0.00 in0.0 mm
07:15 AM 75.4°F24.1°C 60.1°F15.6°C 59% Calm Calm -- 29.74 in1007.1 mb - 0.00 in0.0 mm 0.00 in0.0 mm
07:20 AM 75.8°F24.3°C 59.5°F15.3°C 57% Calm Calm 1.2 mph1.9 kmh 29.74 in1007.1 mb - 0.00 in0.0 mm 0.00 in0.0 mm
07:25 AM 76.2°F24.6°C 59.4°F15.2°C 56% Calm Calm -- 29.74 in1007.1 mb - 0.00 in0.0 mm 0.00 in0.0 mm
07:30 AM 77.1°F25.1°C 60.2°F15.7°C 56% Calm Calm -- 29.74 in1007.1 mb - 0.00 in0.0 mm 0.00 in0.0 mm
07:35 AM 78.5°F25.8°C 61.0°F16.1°C 55% Calm Calm 1.2 mph1.9 kmh 29.74 in1007.1 mb - 0.00 in0.0 mm 0.00 in0.0 mm
07:40 AM 79.6°F26.4°C 61.0°F16.1°C 53% Calm Calm -- 29.74 in1007.1 mb - 0.00 in0.0 mm 0.00 in0.0 mm
07:45 AM 80.7°F27.1°C 60.9°F16.1°C 51% Calm Calm -- 29.74 in1007.1 mb - 0.00 in0.0 mm 0.00 in0.0 mm
07:50 AM 81.7°F27.6°C 61.2°F16.2°C 50% Calm Calm -- 29.74 in1007.1 mb - 0.00 in0.0 mm 0.00 in0.0 mm
07:55 AM 82.3°F27.9°C 61.8°F16.6°C 50% Calm Calm -- 29.74 in1007.1 mb - 0.00 in0.0 mm 0.00 in0.0 mm
08:00 AM 82.3°F27.9°C 60.1°F15.6°C 47% Calm Calm 1.2 mph1.9 kmh 29.75 in1007.5 mb - 0.00 in0.0 mm 0.00 in0.0 mm
08:05 AM 82.7°F28.2°C 59.8°F15.4°C 46% Calm Calm 1.2 mph1.9 kmh 29.74 in1007.1 mb - 0.00 in0.0 mm 0.00 in0.0 mm
08:10 AM 83.0°F28.3°C 60.7°F15.9°C 47% Calm Calm 1.2 mph1.9 kmh 29.75 in1007.5 mb - 0.00 in0.0 mm 0.00 in0.0 mm
08:15 AM 83.1°F28.4°C 61.4°F16.3°C 48% Calm Calm 1.2 mph1.9 kmh 29.75 in1007.5 mb - 0.00 in0.0 mm 0.00 in0.0 mm
08:20 AM 83.2°F28.4°C 60.9°F16.1°C 47% Calm Calm 1.2 mph1.9 kmh 29.75 in1007.5 mb - 0.00 in0.0 mm 0.00 in0.0 mm
08:25 AM 83.4°F28.6°C 61.1°F16.2°C 47% Calm Calm -- 29.75 in1007.5 mb - 0.00 in0.0 mm 0.00 in0.0 mm
08:30 AM 83.9°F28.8°C 60.9°F16.1°C 46% Calm Calm 1.2 mph1.9 kmh 29.75 in1007.5 mb - 0.00 in0.0 mm 0.00 in0.0 mm
08:35 AM 83.8°F28.8°C 61.4°F16.3°C 47% Calm Calm 2.3 mph3.7 kmh 29.75 in1007.5 mb - 0.00 in0.0 mm 0.00 in0.0 mm
08:40 AM 83.9°F28.8°C 60.3°F15.7°C 45% 1.2 mph S1.9 kmh S 3.5 mph5.6 kmh 29.75 in1007.5 mb - 0.00 in0.0 mm 0.00 in0.0 mm
08:45 AM 83.9°F28.8°C 60.9°F16.1°C 46% Calm Calm 1.2 mph1.9 kmh 29.75 in1007.5 mb - 0.00 in0.0 mm 0.00 in0.0 mm
08:50 AM 84.4°F29.1°C 61.3°F16.3°C 46% Calm Calm 2.3 mph3.7 kmh 29.75 in1007.5 mb - 0.00 in0.0 mm 0.00 in0.0 mm
08:55 AM 84.8°F29.3°C 61.1°F16.2°C 45% Calm Calm -- 29.75 in1007.5 mb - 0.00 in0.0 mm 0.00 in0.0 mm
09:00 AM 85.2°F29.6°C 60.8°F16.0°C 44% 1.2 mph ESE1.9 kmh ESE 2.3 mph3.7 kmh 29.75 in1007.5 mb - 0.00 in0.0 mm 0.00 in0.0 mm
09:05 AM 85.6°F29.8°C 61.9°F16.6°C 45% Calm Calm 2.3 mph3.7 kmh 29.75 in1007.5 mb - 0.00 in0.0 mm 0.00 in0.0 mm
09:10 AM 86.1°F30.1°C 61.0°F16.1°C 43% Calm Calm 2.3 mph3.7 kmh 29.75 in1007.5 mb - 0.00 in0.0 mm 0.00 in0.0 mm
09:15 AM 86.3°F30.2°C 60.5°F15.8°C 42% Calm Calm 1.2 mph1.9 kmh 29.75 in1007.5 mb - 0.00 in0.0 mm 0.00 in0.0 mm
09:20 AM 86.6°F30.3°C 61.5°F16.4°C 43% Calm Calm 1.2 mph1.9 kmh 29.74 in1007.1 mb - 0.00 in0.0 mm 0.00 in0.0 mm
09:25 AM 86.9°F30.5°C 61.0°F16.1°C 42% 1.2 mph ESE1.9 kmh ESE 3.5 mph5.6 kmh 29.74 in1007.1 mb - 0.00 in0.0 mm 0.00 in0.0 mm
09:30 AM 87.0°F30.6°C 61.1°F16.2°C 42% 1.2 mph ESE1.9 kmh ESE 2.3 mph3.7 kmh 29.74 in1007.1 mb - 0.00 in0.0 mm 0.00 in0.0 mm
09:35 AM 87.2°F30.7°C 61.4°F16.3°C 42% Calm Calm 1.2 mph1.9 kmh 29.74 in1007.1 mb - 0.00 in0.0 mm 0.00 in0.0 mm
09:40 AM 87.7°F30.9°C 61.8°F16.6°C 42% Calm Calm 1.2 mph1.9 kmh 29.74 in1007.1 mb - 0.00 in0.0 mm 0.00 in0.0 mm
09:45 AM 88.2°F31.2°C 60.8°F16.0°C 40% 1.2 mph ESE1.9 kmh ESE 3.5 mph5.6 kmh 29.74 in1007.1 mb - 0.00 in0.0 mm 0.00 in0.0 mm
09:50 AM 87.9°F31.1°C 61.9°F16.6°C 42% 1.2 mph S1.9 kmh S 2.3 mph3.7 kmh 29.74 in1007.1 mb - 0.00 in0.0 mm 0.00 in0.0 mm
09:55 AM 88.2°F31.2°C 62.2°F16.8°C 42% 1.2 mph SSE1.9 kmh SSE 3.5 mph5.6 kmh 29.74 in1007.1 mb - 0.00 in0.0 mm 0.00 in0.0 mm
10:00 AM 88.7°F31.5°C 62.0°F16.7°C 41% 1.2 mph SSW1.9 kmh SSW 2.3 mph3.7 kmh 29.73 in1006.8 mb - 0.00 in0.0 mm 0.00 in0.0 mm
10:05 AM 89.1°F31.7°C 61.6°F16.4°C 40% 1.2 mph S1.9 kmh S 1.2 mph1.9 kmh 29.73 in1006.8 mb - 0.00 in0.0 mm 0.00 in0.0 mm
10:10 AM 89.3°F31.8°C 62.5°F16.9°C 41% Calm Calm 2.3 mph3.7 kmh 29.73 in1006.8 mb - 0.00 in0.0 mm 0.00 in0.0 mm
10:15 AM 89.5°F31.9°C 61.3°F16.3°C 39% 1.2 mph SSW1.9 kmh SSW 3.5 mph5.6 kmh 29.73 in1006.8 mb - 0.00 in0.0 mm 0.00 in0.0 mm
10:20 AM 89.7°F32.1°C 60.7°F15.9°C 38% 1.2 mph SSE1.9 kmh SSE 4.6 mph7.4 kmh 29.73 in1006.8 mb - 0.00 in0.0 mm 0.00 in0.0 mm
10:25 AM 90.0°F32.2°C 61.7°F16.5°C 39% 1.2 mph S1.9 kmh S 2.3 mph3.7 kmh 29.73 in1006.8 mb - 0.00 in0.0 mm 0.00 in0.0 mm
10:30 AM 90.6°F32.6°C 60.0°F15.6°C 36% 1.2 mph S1.9 kmh S 2.3 mph3.7 kmh 29.73 in1006.8 mb - 0.00 in0.0 mm 0.00 in0.0 mm
10:35 AM 90.8°F32.7°C 60.9°F16.1°C 37% Calm Calm 1.2 mph1.9 kmh 29.73 in1006.8 mb - 0.00 in0.0 mm 0.00 in0.0 mm
10:40 AM 91.2°F32.9°C 60.5°F15.8°C 36% 1.2 mph N1.9 kmh N 3.5 mph5.6 kmh 29.73 in1006.8 mb - 0.00 in0.0 mm 0.00 in0.0 mm
10:45 AM 91.3°F32.9°C 60.6°F15.9°C 36% 1.2 mph NW1.9 kmh NW 3.5 mph5.6 kmh 29.73 in1006.8 mb - 0.00 in0.0 mm 0.00 in0.0 mm
10:50 AM 91.6°F33.1°C 60.9°F16.1°C 36% 1.2 mph NW1.9 kmh NW 2.3 mph3.7 kmh 29.73 in1006.8 mb - 0.00 in0.0 mm 0.00 in0.0 mm
10:55 AM 91.8°F33.2°C 61.1°F16.2°C 36% Calm Calm 2.3 mph3.7 kmh 29.73 in1006.8 mb - 0.00 in0.0 mm 0.00 in0.0 mm
11:00 AM 92.4°F33.6°C 61.6°F16.4°C 36% Calm Calm 1.2 mph1.9 kmh 29.73 in1006.8 mb - 0.00 in0.0 mm 0.00 in0.0 mm
11:05 AM 93.1°F33.9°C 61.4°F16.3°C 35% Calm Calm -- 29.73 in1006.8 mb - 0.00 in0.0 mm 0.00 in0.0 mm
11:10 AM 93.4°F34.1°C 60.0°F15.6°C 33% 1.2 mph N1.9 kmh N 3.5 mph5.6 kmh 29.73 in1006.8 mb - 0.00 in0.0 mm 0.00 in0.0 mm
11:15 AM 93.1°F33.9°C 61.4°F16.3°C 35% 1.2 mph NNE1.9 kmh NNE 2.3 mph3.7 kmh 29.73 in1006.8 mb - 0.00 in0.0 mm 0.00 in0.0 mm
11:20 AM 93.5°F34.2°C 61.7°F16.5°C 35% Calm Calm 1.2 mph1.9 kmh 29.73 in1006.8 mb - 0.00 in0.0 mm 0.00 in0.0 mm
11:25 AM 93.2°F34.0°C 62.3°F16.8°C 36% 1.2 mph WSW1.9 kmh WSW 3.5 mph5.6 kmh 29.73 in1006.8 mb - 0.00 in0.0 mm 0.00 in0.0 mm
11:30 AM 93.5°F34.2°C 62.6°F17.0°C 36% Calm Calm 2.3 mph3.7 kmh 29.73 in1006.8 mb - 0.00 in0.0 mm 0.00 in0.0 mm
11:35 AM 93.4°F34.1°C 61.7°F16.5°C 35% 1.2 mph NW1.9 kmh NW 1.2 mph1.9 kmh 29.73 in1006.8 mb - 0.00 in0.0 mm 0.00 in0.0 mm
11:40 AM 93.6°F34.2°C 61.0°F16.1°C 34% 1.2 mph WSW1.9 kmh WSW 1.2 mph1.9 kmh 29.73 in1006.8 mb - 0.00 in0.0 mm 0.00 in0.0 mm
11:45 AM 94.1°F34.5°C 63.1°F17.3°C 36% Calm Calm 2.3 mph3.7 kmh 29.73 in1006.8 mb - 0.00 in0.0 mm 0.00 in0.0 mm
11:50 AM 94.1°F34.5°C 61.4°F16.3°C 34% 1.2 mph NW1.9 kmh NW 2.3 mph3.7 kmh 29.73 in1006.8 mb - 0.00 in0.0 mm 0.00 in0.0 mm
11:55 AM 94.1°F34.5°C 62.2°F16.8°C 35% 1.2 mph NW1.9 kmh NW 2.3 mph3.7 kmh 29.73 in1006.8 mb - 0.00 in0.0 mm 0.00 in0.0 mm
12:00 PM 94.0°F34.4°C 62.2°F16.8°C 35% Calm Calm 3.5 mph5.6 kmh 29.73 in1006.8 mb - 0.00 in0.0 mm 0.00 in0.0 mm
12:05 PM 94.5°F34.7°C 59.2°F15.1°C 31% 1.2 mph NW1.9 kmh NW 2.3 mph3.7 kmh 29.73 in1006.8 mb - 0.00 in0.0 mm 0.00 in0.0 mm
12:10 PM 94.5°F34.7°C 58.3°F14.6°C 30% 1.2 mph NW1.9 kmh NW 2.3 mph3.7 kmh 29.73 in1006.8 mb - 0.00 in0.0 mm 0.00 in0.0 mm
12:15 PM 95.0°F35.0°C 59.6°F15.3°C 31% 1.2 mph NNW1.9 kmh NNW 1.2 mph1.9 kmh 29.73 in1006.8 mb - 0.00 in0.0 mm 0.00 in0.0 mm
12:20 PM 95.5°F35.3°C 59.1°F15.1°C 30% 1.2 mph NW1.9 kmh NW 2.3 mph3.7 kmh 29.73 in1006.8 mb - 0.00 in0.0 mm 0.00 in0.0 mm
12:25 PM 95.6°F35.3°C 58.3°F14.6°C 29% 1.2 mph WNW1.9 kmh WNW 2.3 mph3.7 kmh 29.73 in1006.8 mb - 0.00 in0.0 mm 0.00 in0.0 mm
12:30 PM 95.9°F35.5°C 57.6°F14.2°C 28% 1.2 mph NNW1.9 kmh NNW 1.2 mph1.9 kmh 29.72 in1006.4 mb - 0.00 in0.0 mm 0.00 in0.0 mm
12:35 PM 96.6°F35.9°C 63.6°F17.6°C 34% 1.2 mph NW1.9 kmh NW 3.5 mph5.6 kmh 29.72 in1006.4 mb - 0.00 in0.0 mm 0.00 in0.0 mm
12:40 PM 97.3°F36.3°C 62.5°F16.9°C 32% Calm Calm 2.3 mph3.7 kmh 29.72 in1006.4 mb - 0.00 in0.0 mm 0.00 in0.0 mm
12:45 PM 97.8°F36.6°C 59.2°F15.1°C 28% 1.2 mph ENE1.9 kmh ENE 1.2 mph1.9 kmh 29.72 in1006.4 mb - 0.00 in0.0 mm 0.00 in0.0 mm
12:50 PM 97.9°F36.6°C 60.2°F15.7°C 29% 1.2 mph NW1.9 kmh NW 3.5 mph5.6 kmh 29.72 in1006.4 mb - 0.00 in0.0 mm 0.00 in0.0 mm
12:55 PM 97.7°F36.5°C 57.1°F13.9°C 26% Calm Calm 1.2 mph1.9 kmh 29.72 in1006.4 mb - 0.00 in0.0 mm 0.00 in0.0 mm
01:00 PM 97.4°F36.3°C 55.7°F13.2°C 25% 1.2 mph NW1.9 kmh NW 2.3 mph3.7 kmh 29.72 in1006.4 mb - 0.00 in0.0 mm 0.00 in0.0 mm
01:05 PM 97.5°F36.4°C 56.8°F13.8°C 26% Calm Calm -- 29.72 in1006.4 mb - 0.00 in0.0 mm 0.00 in0.0 mm
01:10 PM 98.1°F36.7°C 58.4°F14.7°C 27% Calm Calm 2.3 mph3.7 kmh 29.71 in1006.1 mb - 0.00 in0.0 mm 0.00 in0.0 mm
01:15 PM 98.1°F36.7°C 55.1°F12.8°C 24% 1.2 mph NNW1.9 kmh NNW 2.3 mph3.7 kmh 29.71 in1006.1 mb - 0.00 in0.0 mm 0.00 in0.0 mm
01:20 PM 98.1°F36.7°C 58.4°F14.7°C 27% 1.2 mph NW1.9 kmh NW 2.3 mph3.7 kmh 29.71 in1006.1 mb - 0.00 in0.0 mm 0.00 in0.0 mm
01:25 PM 97.9°F36.6°C 56.1°F13.4°C 25% 1.2 mph NW1.9 kmh NW 3.5 mph5.6 kmh 29.71 in1006.1 mb - 0.00 in0.0 mm 0.00 in0.0 mm
01:30 PM 98.1°F36.7°C 57.3°F14.1°C 26% 1.2 mph ESE1.9 kmh ESE 1.2 mph1.9 kmh 29.71 in1006.1 mb - 0.00 in0.0 mm 0.00 in0.0 mm
01:35 PM 98.0°F36.7°C 56.2°F13.4°C 25% 1.2 mph NNW1.9 kmh NNW 3.5 mph5.6 kmh 29.71 in1006.1 mb - 0.00 in0.0 mm 0.00 in0.0 mm
01:40 PM 98.5°F36.9°C 59.7°F15.4°C 28% Calm Calm 2.3 mph3.7 kmh 29.71 in1006.1 mb - 0.00 in0.0 mm 0.00 in0.0 mm
01:45 PM 98.8°F37.1°C 59.0°F15.0°C 27% Calm Calm 2.3 mph3.7 kmh 29.70 in1005.8 mb - 0.00 in0.0 mm 0.00 in0.0 mm
01:50 PM 98.8°F37.1°C 60.1°F15.6°C 28% Calm Calm -- 29.70 in1005.8 mb - 0.00 in0.0 mm 0.00 in0.0 mm
01:55 PM 98.9°F37.2°C 59.1°F15.1°C 27% Calm Calm 2.3 mph3.7 kmh 29.70 in1005.8 mb - 0.00 in0.0 mm 0.00 in0.0 mm
02:00 PM 99.1°F37.3°C 58.2°F14.6°C 26% Calm Calm 2.3 mph3.7 kmh 29.70 in1005.8 mb - 0.00 in0.0 mm 0.00 in0.0 mm
02:05 PM 99.5°F37.5°C 60.6°F15.9°C 28% Calm Calm 1.2 mph1.9 kmh 29.70 in1005.8 mb - 0.00 in0.0 mm 0.00 in0.0 mm
02:10 PM 99.5°F37.5°C 57.4°F14.1°C 25% 1.2 mph NNE1.9 kmh NNE 2.3 mph3.7 kmh 29.70 in1005.8 mb - 0.00 in0.0 mm 0.00 in0.0 mm
02:15 PM 99.4°F37.4°C 56.2°F13.4°C 24% 1.2 mph WNW1.9 kmh WNW 3.5 mph5.6 kmh 29.70 in1005.8 mb - 0.00 in0.0 mm 0.00 in0.0 mm
02:20 PM 99.8°F37.7°C 59.9°F15.5°C 27% Calm Calm 1.2 mph1.9 kmh 29.69 in1005.4 mb - 0.00 in0.0 mm 0.00 in0.0 mm
02:25 PM 100.3°F37.9°C 59.2°F15.1°C 26% Calm Calm 1.2 mph1.9 kmh 29.69 in1005.4 mb - 0.00 in0.0 mm 0.00 in0.0 mm
02:30 PM 100.7°F38.2°C 59.5°F15.3°C 26% Calm Calm 1.2 mph1.9 kmh 29.69 in1005.4 mb - 0.00 in0.0 mm 0.00 in0.0 mm
02:35 PM 101.1°F38.4°C 61.0°F16.1°C 27% 1.2 mph NE1.9 kmh NE 2.3 mph3.7 kmh 29.69 in1005.4 mb - 0.00 in0.0 mm 0.00 in0.0 mm
02:40 PM 101.5°F38.6°C 60.2°F15.7°C 26% 1.2 mph S1.9 kmh S 2.3 mph3.7 kmh 29.69 in1005.4 mb - 0.00 in0.0 mm 0.00 in0.0 mm
02:45 PM 101.5°F38.6°C 60.2°F15.7°C 26% 1.2 mph WNW1.9 kmh WNW 3.5 mph5.6 kmh 29.69 in1005.4 mb - 0.00 in0.0 mm 0.00 in0.0 mm
02:50 PM 101.4°F38.6°C 59.1°F15.1°C 25% Calm Calm 2.3 mph3.7 kmh 29.68 in1005.1 mb - 0.00 in0.0 mm 0.00 in0.0 mm
02:55 PM 101.5°F38.6°C 59.1°F15.1°C 25% Calm Calm 1.2 mph1.9 kmh 29.68 in1005.1 mb - 0.00 in0.0 mm 0.00 in0.0 mm
03:00 PM 101.5°F38.6°C 58.0°F14.4°C 24% Calm Calm 1.2 mph1.9 kmh 29.68 in1005.1 mb - 0.00 in0.0 mm 0.00 in0.0 mm
03:05 PM 102.1°F38.9°C 59.7°F15.4°C 25% 1.2 mph NNE1.9 kmh NNE 2.3 mph3.7 kmh 29.68 in1005.1 mb - 0.00 in0.0 mm 0.00 in0.0 mm
03:10 PM 102.2°F39.0°C 58.6°F14.8°C 24% 1.2 mph WSW1.9 kmh WSW 3.5 mph5.6 kmh 29.68 in1005.1 mb - 0.00 in0.0 mm 0.00 in0.0 mm
03:15 PM 102.0°F38.9°C 58.4°F14.7°C 24% Calm Calm 1.2 mph1.9 kmh 29.68 in1005.1 mb - 0.00 in0.0 mm 0.00 in0.0 mm
03:20 PM 102.0°F38.9°C 58.4°F14.7°C 24% 1.2 mph NW1.9 kmh NW 2.3 mph3.7 kmh 29.68 in1005.1 mb - 0.00 in0.0 mm 0.00 in0.0 mm
03:25 PM 102.0°F38.9°C 59.5°F15.3°C 25% 1.2 mph NW1.9 kmh NW 1.2 mph1.9 kmh 29.68 in1005.1 mb - 0.00 in0.0 mm 0.00 in0.0 mm
03:30 PM 101.9°F38.8°C 58.3°F14.6°C 24% 1.2 mph NW1.9 kmh NW 2.3 mph3.7 kmh 29.67 in1004.7 mb - 0.00 in0.0 mm 0.00 in0.0 mm
03:35 PM 101.6°F38.7°C 58.1°F14.5°C 24% 1.2 mph NW1.9 kmh NW 2.3 mph3.7 kmh 29.67 in1004.7 mb - 0.00 in0.0 mm 0.00 in0.0 mm
03:40 PM 101.2°F38.4°C 57.7°F14.3°C 24% 1.2 mph NW1.9 kmh NW 3.5 mph5.6 kmh 29.67 in1004.7 mb - 0.00 in0.0 mm 0.00 in0.0 mm
03:45 PM 101.1°F38.4°C 58.8°F14.9°C 25% 1.2 mph WNW1.9 kmh WNW 3.5 mph5.6 kmh 29.67 in1004.7 mb - 0.00 in0.0 mm 0.00 in0.0 mm
03:50 PM 101.0°F38.3°C 57.6°F14.2°C 24% 1.2 mph NW1.9 kmh NW 2.3 mph3.7 kmh 29.67 in1004.7 mb - 0.00 in0.0 mm 0.00 in0.0 mm
03:55 PM 100.9°F38.3°C 57.5°F14.2°C 24% 1.2 mph NW1.9 kmh NW 2.3 mph3.7 kmh 29.67 in1004.7 mb - 0.00 in0.0 mm 0.00 in0.0 mm
04:00 PM 101.2°F38.4°C 56.5°F13.6°C 23% 2.3 mph NW3.7 kmh NW 3.5 mph5.6 kmh 29.66 in1004.4 mb - 0.00 in0.0 mm 0.00 in0.0 mm
04:05 PM 101.2°F38.4°C 56.6°F13.7°C 23% 1.2 mph NW1.9 kmh NW 1.2 mph1.9 kmh 29.66 in1004.4 mb - 0.00 in0.0 mm 0.00 in0.0 mm
04:10 PM 101.7°F38.7°C 58.2°F14.6°C 24% Calm Calm 2.3 mph3.7 kmh 29.66 in1004.4 mb - 0.00 in0.0 mm 0.00 in0.0 mm
04:15 PM 101.6°F38.7°C 56.9°F13.8°C 23% 2.3 mph NNW3.7 kmh NNW 3.5 mph5.6 kmh 29.66 in1004.4 mb - 0.00 in0.0 mm 0.00 in0.0 mm
04:20 PM 101.0°F38.3°C 56.4°F13.6°C 23% 2.3 mph NW3.7 kmh NW 3.5 mph5.6 kmh 29.66 in1004.4 mb - 0.00 in0.0 mm 0.00 in0.0 mm
04:25 PM 101.1°F38.4°C 57.7°F14.3°C 24% 1.2 mph NW1.9 kmh NW 2.3 mph3.7 kmh 29.66 in1004.4 mb - 0.00 in0.0 mm 0.00 in0.0 mm
04:30 PM 101.2°F38.4°C 56.6°F13.7°C 23% Calm Calm 1.2 mph1.9 kmh 29.66 in1004.4 mb - 0.00 in0.0 mm 0.00 in0.0 mm
04:35 PM 101.2°F38.4°C 57.7°F14.3°C 24% 2.3 mph NW3.7 kmh NW 3.5 mph5.6 kmh 29.66 in1004.4 mb - 0.00 in0.0 mm 0.00 in0.0 mm
04:40 PM 101.0°F38.3°C 58.7°F14.8°C 25% 1.2 mph NNW1.9 kmh NNW 2.3 mph3.7 kmh 29.65 in1004.1 mb - 0.00 in0.0 mm 0.00 in0.0 mm
04:45 PM 101.0°F38.3°C 56.4°F13.6°C 23% 1.2 mph NW1.9 kmh NW 3.5 mph5.6 kmh 29.65 in1004.1 mb - 0.00 in0.0 mm 0.00 in0.0 mm
04:50 PM 100.7°F38.2°C 57.3°F14.1°C 24% 1.2 mph NW1.9 kmh NW 2.3 mph3.7 kmh 29.65 in1004.1 mb - 0.00 in0.0 mm 0.00 in0.0 mm
04:55 PM 100.8°F38.2°C 56.3°F13.5°C 23% 1.2 mph NW1.9 kmh NW 1.2 mph1.9 kmh 29.65 in1004.1 mb - 0.00 in0.0 mm 0.00 in0.0 mm
05:00 PM 101.1°F38.4°C 57.7°F14.3°C 24% 2.3 mph NW3.7 kmh NW 3.5 mph5.6 kmh 29.64 in1003.7 mb - 0.00 in0.0 mm 0.00 in0.0 mm
05:05 PM 101.1°F38.4°C 55.3°F12.9°C 22% 1.2 mph NW1.9 kmh NW 2.3 mph3.7 kmh 29.64 in1003.7 mb - 0.00 in0.0 mm 0.00 in0.0 mm
05:10 PM 101.2°F38.4°C 56.6°F13.7°C 23% 1.2 mph NW1.9 kmh NW 2.3 mph3.7 kmh 29.64 in1003.7 mb - 0.00 in0.0 mm 0.00 in0.0 mm
05:15 PM 101.2°F38.4°C 57.7°F14.3°C 24% 1.2 mph NW1.9 kmh NW 2.3 mph3.7 kmh 29.64 in1003.7 mb - 0.00 in0.0 mm 0.00 in0.0 mm
05:20 PM 101.0°F38.3°C 55.2°F12.9°C 22% 2.3 mph NW3.7 kmh NW 2.3 mph3.7 kmh 29.64 in1003.7 mb - 0.00 in0.0 mm 0.00 in0.0 mm
05:25 PM 100.8°F38.2°C 55.0°F12.8°C 22% 2.3 mph WNW3.7 kmh WNW 2.3 mph3.7 kmh 29.64 in1003.7 mb - 0.00 in0.0 mm 0.00 in0.0 mm
05:30 PM 100.6°F38.1°C 53.6°F12.0°C 21% 1.2 mph NW1.9 kmh NW 2.3 mph3.7 kmh 29.64 in1003.7 mb - 0.00 in0.0 mm 0.00 in0.0 mm
05:35 PM 100.9°F38.3°C 55.1°F12.8°C 22% 1.2 mph NW1.9 kmh NW 2.3 mph3.7 kmh 29.63 in1003.4 mb - 0.00 in0.0 mm 0.00 in0.0 mm
05:40 PM 100.9°F38.3°C 55.0°F12.8°C 22% 2.3 mph WNW3.7 kmh WNW 3.5 mph5.6 kmh 29.63 in1003.4 mb - 0.00 in0.0 mm 0.00 in0.0 mm
05:45 PM 100.7°F38.2°C 55.0°F12.8°C 22% Calm Calm 1.2 mph1.9 kmh 29.63 in1003.4 mb - 0.00 in0.0 mm 0.00 in0.0 mm
05:50 PM 100.8°F38.2°C 56.2°F13.4°C 23% 2.3 mph NW3.7 kmh NW 3.5 mph5.6 kmh 29.63 in1003.4 mb - 0.00 in0.0 mm 0.00 in0.0 mm
05:55 PM 100.7°F38.2°C 56.1°F13.4°C 23% 2.3 mph WNW3.7 kmh WNW 3.5 mph5.6 kmh 29.62 in1003.0 mb - 0.00 in0.0 mm 0.00 in0.0 mm
06:00 PM 100.7°F38.2°C 54.9°F12.7°C 22% 1.2 mph NW1.9 kmh NW 2.3 mph3.7 kmh 29.62 in1003.0 mb - 0.00 in0.0 mm 0.00 in0.0 mm
06:05 PM 100.8°F38.2°C 55.0°F12.8°C 22% 1.2 mph NNW1.9 kmh NNW 2.3 mph3.7 kmh 29.62 in1003.0 mb - 0.00 in0.0 mm 0.00 in0.0 mm
06:10 PM 100.9°F38.3°C 57.5°F14.2°C 24% 1.2 mph NW1.9 kmh NW 2.3 mph3.7 kmh 29.62 in1003.0 mb - 0.00 in0.0 mm 0.00 in0.0 mm
06:15 PM 100.9°F38.3°C 58.6°F14.8°C 25% Calm Calm 1.2 mph1.9 kmh 29.62 in1003.0 mb - 0.00 in0.0 mm 0.00 in0.0 mm
06:20 PM 100.8°F38.2°C 57.4°F14.1°C 24% 1.2 mph NW1.9 kmh NW 2.3 mph3.7 kmh 29.62 in1003.0 mb - 0.00 in0.0 mm 0.00 in0.0 mm
06:25 PM 100.6°F38.1°C 57.2°F14.0°C 24% Calm Calm 2.3 mph3.7 kmh 29.62 in1003.0 mb - 0.00 in0.0 mm 0.00 in0.0 mm
06:30 PM 100.9°F38.3°C 58.6°F14.8°C 25% Calm Calm 1.2 mph1.9 kmh 29.62 in1003.0 mb - 0.00 in0.0 mm 0.00 in0.0 mm
06:35 PM 100.8°F38.2°C 58.6°F14.8°C 25% 1.2 mph NW1.9 kmh NW 1.2 mph1.9 kmh 29.62 in1003.0 mb - 0.00 in0.0 mm 0.00 in0.0 mm
06:40 PM 100.4°F38.0°C 57.1°F13.9°C 24% Calm Calm 1.2 mph1.9 kmh 29.62 in1003.0 mb - 0.00 in0.0 mm 0.00 in0.0 mm
06:45 PM 100.4°F38.0°C 60.4°F15.8°C 27% Calm Calm 1.2 mph1.9 kmh 29.62 in1003.0 mb - 0.00 in0.0 mm 0.00 in0.0 mm
06:50 PM 100.3°F37.9°C 59.2°F15.1°C 26% Calm Calm 1.2 mph1.9 kmh 29.62 in1003.0 mb - 0.00 in0.0 mm 0.00 in0.0 mm
06:55 PM 99.8°F37.7°C 58.8°F14.9°C 26% Calm Calm -- 29.62 in1003.0 mb - 0.00 in0.0 mm 0.00 in0.0 mm
07:00 PM 98.9°F37.2°C 59.1°F15.1°C 27% Calm Calm -- 29.62 in1003.0 mb - 0.00 in0.0 mm 0.00 in0.0 mm
07:05 PM 98.4°F36.9°C 60.6°F15.9°C 29% Calm Calm -- 29.62 in1003.0 mb - 0.00 in0.0 mm 0.00 in0.0 mm
07:10 PM 98.2°F36.8°C 59.5°F15.3°C 28% Calm Calm -- 29.62 in1003.0 mb - 0.00 in0.0 mm 0.00 in0.0 mm
07:15 PM 98.4°F36.9°C 59.7°F15.4°C 28% Calm Calm -- 29.62 in1003.0 mb - 0.00 in0.0 mm 0.00 in0.0 mm
07:20 PM 97.9°F36.6°C 57.2°F14.0°C 26% Calm Calm -- 29.62 in1003.0 mb - 0.00 in0.0 mm 0.00 in0.0 mm
07:25 PM 96.9°F36.1°C 58.4°F14.7°C 28% Calm Calm -- 29.62 in1003.0 mb - 0.00 in0.0 mm 0.00 in0.0 mm
07:30 PM 96.2°F35.7°C 57.8°F14.3°C 28% Calm Calm -- 29.62 in1003.0 mb - 0.00 in0.0 mm 0.00 in0.0 mm
07:35 PM 95.5°F35.3°C 57.2°F14.0°C 28% Calm Calm -- 29.62 in1003.0 mb - 0.00 in0.0 mm 0.00 in0.0 mm
07:40 PM 95.0°F35.0°C 58.7°F14.8°C 30% Calm Calm -- 29.61 in1002.7 mb - 0.00 in0.0 mm 0.00 in0.0 mm
07:45 PM 94.3°F34.6°C 59.0°F15.0°C 31% Calm Calm -- 29.62 in1003.0 mb - 0.00 in0.0 mm 0.00 in0.0 mm
07:50 PM 93.5°F34.2°C 59.2°F15.1°C 32% Calm Calm -- 29.62 in1003.0 mb - 0.00 in0.0 mm 0.00 in0.0 mm
07:55 PM 92.7°F33.7°C 60.2°F15.7°C 34% Calm Calm -- 29.62 in1003.0 mb - 0.00 in0.0 mm 0.00 in0.0 mm
08:00 PM 91.9°F33.3°C 60.3°F15.7°C 35% Calm Calm -- 29.62 in1003.0 mb - 0.00 in0.0 mm 0.00 in0.0 mm
08:05 PM 91.1°F32.8°C 60.5°F15.8°C 36% Calm Calm -- 29.62 in1003.0 mb - 0.00 in0.0 mm 0.00 in0.0 mm
08:10 PM 90.3°F32.4°C 61.3°F16.3°C 38% Calm Calm -- 29.62 in1003.0 mb - 0.00 in0.0 mm 0.00 in0.0 mm
08:15 PM 89.6°F32.0°C 64.2°F17.9°C 43% Calm Calm -- 29.62 in1003.0 mb - 0.00 in0.0 mm 0.00 in0.0 mm
08:20 PM 88.8°F31.6°C 64.0°F17.8°C 44% Calm Calm -- 29.62 in1003.0 mb - 0.00 in0.0 mm 0.00 in0.0 mm
08:25 PM 88.0°F31.1°C 64.7°F18.2°C 46% Calm Calm -- 29.62 in1003.0 mb - 0.00 in0.0 mm 0.00 in0.0 mm
08:30 PM 87.6°F30.9°C 64.2°F17.9°C 46% Calm Calm -- 29.62 in1003.0 mb - 0.00 in0.0 mm 0.00 in0.0 mm
08:35 PM 87.2°F30.7°C 65.1°F18.4°C 48% Calm Calm -- 29.62 in1003.0 mb - 0.00 in0.0 mm 0.00 in0.0 mm
08:40 PM 86.5°F30.3°C 65.6°F18.7°C 50% Calm Calm -- 29.62 in1003.0 mb - 0.00 in0.0 mm 0.00 in0.0 mm
08:45 PM 85.7°F29.8°C 66.1°F18.9°C 52% Calm Calm -- 29.62 in1003.0 mb - 0.00 in0.0 mm 0.00 in0.0 mm
08:50 PM 85.0°F29.4°C 66.0°F18.9°C 53% Calm Calm -- 29.62 in1003.0 mb - 0.00 in0.0 mm 0.00 in0.0 mm
08:55 PM 84.5°F29.2°C 66.5°F19.2°C 55% Calm Calm -- 29.62 in1003.0 mb - 0.00 in0.0 mm 0.00 in0.0 mm
09:00 PM 84.0°F28.9°C 66.1°F18.9°C 55% Calm Calm -- 29.62 in1003.0 mb - 0.00 in0.0 mm 0.00 in0.0 mm
09:05 PM 83.6°F28.7°C 65.7°F18.7°C 55% Calm Calm -- 29.63 in1003.4 mb - 0.00 in0.0 mm 0.00 in0.0 mm
09:10 PM 83.1°F28.4°C 65.8°F18.8°C 56% Calm Calm -- 29.63 in1003.4 mb - 0.00 in0.0 mm 0.00 in0.0 mm
09:15 PM 82.7°F28.2°C 64.9°F18.3°C 55% Calm Calm -- 29.63 in1003.4 mb - 0.00 in0.0 mm 0.00 in0.0 mm
09:20 PM 82.6°F28.1°C 64.3°F17.9°C 54% Calm Calm -- 29.63 in1003.4 mb - 0.00 in0.0 mm 0.00 in0.0 mm
09:25 PM 82.5°F28.1°C 63.6°F17.6°C 53% Calm Calm -- 29.63 in1003.4 mb - 0.00 in0.0 mm 0.00 in0.0 mm
09:30 PM 82.3°F27.9°C 65.1°F18.4°C 56% Calm Calm -- 29.64 in1003.7 mb - 0.00 in0.0 mm 0.00 in0.0 mm
09:35 PM 82.0°F27.8°C 65.8°F18.8°C 58% Calm Calm -- 29.64 in1003.7 mb - 0.00 in0.0 mm 0.00 in0.0 mm
09:40 PM 81.5°F27.5°C 64.8°F18.2°C 57% Calm Calm -- 29.64 in1003.7 mb - 0.00 in0.0 mm 0.00 in0.0 mm
09:45 PM 81.5°F27.5°C 62.7°F17.1°C 53% Calm Calm -- 29.64 in1003.7 mb - 0.00 in0.0 mm 0.00 in0.0 mm
09:50 PM 82.4°F28.0°C 62.4°F16.9°C 51% Calm Calm -- 29.65 in1004.1 mb - 0.00 in0.0 mm 0.00 in0.0 mm
09:55 PM 82.7°F28.2°C 62.2°F16.8°C 50% Calm Calm -- 29.65 in1004.1 mb - 0.00 in0.0 mm 0.00 in0.0 mm
10:00 PM 82.9°F28.3°C 62.4°F16.9°C 50% Calm Calm -- 29.65 in1004.1 mb - 0.00 in0.0 mm 0.00 in0.0 mm
10:05 PM 82.8°F28.2°C 61.7°F16.5°C 49% Calm Calm -- 29.65 in1004.1 mb - 0.00 in0.0 mm 0.00 in0.0 mm
10:10 PM 82.6°F28.1°C 63.2°F17.3°C 52% Calm Calm -- 29.65 in1004.1 mb - 0.00 in0.0 mm 0.00 in0.0 mm
10:15 PM 82.1°F27.8°C 63.3°F17.4°C 53% Calm Calm -- 29.65 in1004.1 mb - 0.00 in0.0 mm 0.00 in0.0 mm
10:20 PM 81.4°F27.4°C 63.2°F17.3°C 54% Calm Calm -- 29.65 in1004.1 mb - 0.00 in0.0 mm 0.00 in0.0 mm
10:25 PM 80.9°F27.2°C 63.2°F17.3°C 55% Calm Calm -- 29.65 in1004.1 mb - 0.00 in0.0 mm 0.00 in0.0 mm
10:30 PM 80.4°F26.9°C 62.7°F17.1°C 55% Calm Calm 1.2 mph1.9 kmh 29.65 in1004.1 mb - 0.00 in0.0 mm 0.00 in0.0 mm
10:35 PM 80.4°F26.9°C 61.7°F16.5°C 53% Calm Calm 1.2 mph1.9 kmh 29.65 in1004.1 mb - 0.00 in0.0 mm 0.00 in0.0 mm
10:40 PM 80.6°F27.0°C 61.3°F16.3°C 52% Calm Calm -- 29.65 in1004.1 mb - 0.00 in0.0 mm 0.00 in0.0 mm
10:45 PM 80.4°F26.9°C 62.3°F16.8°C 54% Calm Calm -- 29.65 in1004.1 mb - 0.00 in0.0 mm 0.00 in0.0 mm
10:50 PM 80.2°F26.8°C 61.5°F16.4°C 53% Calm Calm 1.2 mph1.9 kmh 29.65 in1004.1 mb - 0.00 in0.0 mm 0.00 in0.0 mm
10:55 PM 80.6°F27.0°C 60.8°F16.0°C 51% Calm Calm -- 29.65 in1004.1 mb - 0.00 in0.0 mm 0.00 in0.0 mm
11:00 PM 81.0°F27.2°C 60.6°F15.9°C 50% Calm Calm -- 29.65 in1004.1 mb - 0.00 in0.0 mm 0.00 in0.0 mm
11:05 PM 81.2°F27.3°C 60.2°F15.7°C 49% Calm Calm 1.2 mph1.9 kmh 29.65 in1004.1 mb - 0.00 in0.0 mm 0.00 in0.0 mm
11:10 PM 81.3°F27.4°C 60.8°F16.0°C 50% Calm Calm 1.2 mph1.9 kmh 29.65 in1004.1 mb - 0.00 in0.0 mm 0.00 in0.0 mm
11:15 PM 81.0°F27.2°C 61.1°F16.2°C 51% Calm Calm -- 29.65 in1004.1 mb - 0.00 in0.0 mm 0.00 in0.0 mm
11:20 PM 80.3°F26.8°C 61.1°F16.2°C 52% Calm Calm -- 29.64 in1003.7 mb - 0.00 in0.0 mm 0.00 in0.0 mm
11:25 PM 79.9°F26.6°C 60.7°F15.9°C 52% Calm Calm 1.2 mph1.9 kmh 29.64 in1003.7 mb - 0.00 in0.0 mm 0.00 in0.0 mm
11:30 PM 79.9°F26.6°C 61.2°F16.2°C 53% Calm Calm -- 29.65 in1004.1 mb - 0.00 in0.0 mm 0.00 in0.0 mm
11:35 PM 79.8°F26.6°C 61.2°F16.2°C 53% Calm Calm -- 29.65 in1004.1 mb - 0.00 in0.0 mm 0.00 in0.0 mm
11:40 PM 79.9°F26.6°C 60.1°F15.6°C 51% Calm Calm 1.2 mph1.9 kmh 29.65 in1004.1 mb - 0.00 in0.0 mm 0.00 in0.0 mm
11:45 PM 79.8°F26.6°C 60.6°F15.9°C 52% Calm Calm -- 29.65 in1004.1 mb - 0.00 in0.0 mm 0.00 in0.0 mm
11:50 PM 79.2°F26.2°C 63.6°F17.6°C 59% Calm Calm -- 29.65 in1004.1 mb - 0.00 in0.0 mm 0.00 in0.0 mm
11:55 PM 78.1°F25.6°C 62.6°F17.0°C 59% Calm Calm -- 29.65 in1004.1 mb - 0.00 in0.0 mm 0.00 in0.0 mm